sensor_id;sensor_type;location;lat;lon;timestamp;P1;durP1;ratioP1;P2;durP2;ratioP2
16510;SDS011;8368;48.772;8.754;2023-07-22T00:00:10;1.42;;;1.33;;
16510;SDS011;8368;48.772;8.754;2023-07-22T00:02:40;1.48;;;1.48;;
16510;SDS011;8368;48.772;8.754;2023-07-22T00:05:06;1.60;;;1.50;;
16510;SDS011;8368;48.772;8.754;2023-07-22T00:07:32;1.58;;;1.48;;
16510;SDS011;8368;48.772;8.754;2023-07-22T00:09:58;1.53;;;1.43;;
16510;SDS011;8368;48.772;8.754;2023-07-22T00:12:24;1.40;;;1.30;;
16510;SDS011;8368;48.772;8.754;2023-07-22T00:14:51;1.60;;;1.50;;
16510;SDS011;8368;48.772;8.754;2023-07-22T00:17:18;1.50;;;1.40;;
16510;SDS011;8368;48.772;8.754;2023-07-22T00:19:44;1.45;;;1.45;;
16510;SDS011;8368;48.772;8.754;2023-07-22T00:22:09;1.37;;;1.37;;
16510;SDS011;8368;48.772;8.754;2023-07-22T00:24:35;1.73;;;1.63;;
16510;SDS011;8368;48.772;8.754;2023-07-22T00:27:00;1.60;;;1.50;;
16510;SDS011;8368;48.772;8.754;2023-07-22T00:29:26;1.20;;;1.20;;
16510;SDS011;8368;48.772;8.754;2023-07-22T00:31:52;1.67;;;1.58;;
16510;SDS011;8368;48.772;8.754;2023-07-22T00:34:17;1.08;;;1.08;;
16510;SDS011;8368;48.772;8.754;2023-07-22T00:36:43;1.48;;;1.38;;
16510;SDS011;8368;48.772;8.754;2023-07-22T00:39:09;1.42;;;1.40;;
16510;SDS011;8368;48.772;8.754;2023-07-22T00:41:36;1.70;;;1.60;;
16510;SDS011;8368;48.772;8.754;2023-07-22T00:44:02;1.23;;;1.23;;
16510;SDS011;8368;48.772;8.754;2023-07-22T00:46:27;1.50;;;1.40;;
16510;SDS011;8368;48.772;8.754;2023-07-22T00:48:53;1.23;;;1.23;;
16510;SDS011;8368;48.772;8.754;2023-07-22T00:51:18;1.77;;;1.67;;
16510;SDS011;8368;48.772;8.754;2023-07-22T00:53:45;1.40;;;1.27;;
16510;SDS011;8368;48.772;8.754;2023-07-22T00:56:11;1.65;;;1.55;;
16510;SDS011;8368;48.772;8.754;2023-07-22T00:58:37;1.50;;;1.50;;
16510;SDS011;8368;48.772;8.754;2023-07-22T01:01:02;1.92;;;1.83;;
16510;SDS011;8368;48.772;8.754;2023-07-22T01:03:28;1.50;;;1.42;;
16510;SDS011;8368;48.772;8.754;2023-07-22T01:05:53;2.10;;;1.38;;
16510;SDS011;8368;48.772;8.754;2023-07-22T01:08:20;1.30;;;1.30;;
16510;SDS011;8368;48.772;8.754;2023-07-22T01:10:46;1.50;;;1.50;;
16510;SDS011;8368;48.772;8.754;2023-07-22T01:13:11;1.58;;;1.50;;
16510;SDS011;8368;48.772;8.754;2023-07-22T01:15:37;1.40;;;1.30;;
16510;SDS011;8368;48.772;8.754;2023-07-22T01:18:03;1.17;;;1.17;;
16510;SDS011;8368;48.772;8.754;2023-07-22T01:20:29;1.43;;;1.33;;
16510;SDS011;8368;48.772;8.754;2023-07-22T01:22:55;1.30;;;1.30;;
16510;SDS011;8368;48.772;8.754;2023-07-22T01:25:21;1.40;;;1.40;;
16510;SDS011;8368;48.772;8.754;2023-07-22T01:27:48;1.70;;;1.45;;
16510;SDS011;8368;48.772;8.754;2023-07-22T01:30:14;1.60;;;1.60;;
16510;SDS011;8368;48.772;8.754;2023-07-22T01:32:40;1.20;;;1.20;;
16510;SDS011;8368;48.772;8.754;2023-07-22T01:35:06;2.10;;;1.65;;
16510;SDS011;8368;48.772;8.754;2023-07-22T01:37:32;1.70;;;1.70;;
16510;SDS011;8368;48.772;8.754;2023-07-22T01:39:59;1.83;;;1.73;;
16510;SDS011;8368;48.772;8.754;2023-07-22T01:42:24;1.77;;;1.67;;
16510;SDS011;8368;48.772;8.754;2023-07-22T01:44:50;1.63;;;1.63;;
16510;SDS011;8368;48.772;8.754;2023-07-22T01:47:15;1.17;;;1.17;;
16510;SDS011;8368;48.772;8.754;2023-07-22T01:49:41;1.50;;;1.40;;
16510;SDS011;8368;48.772;8.754;2023-07-22T01:52:07;1.60;;;1.60;;
16510;SDS011;8368;48.772;8.754;2023-07-22T01:54:33;2.00;;;1.15;;
16510;SDS011;8368;48.772;8.754;2023-07-22T01:56:58;1.40;;;1.40;;
16510;SDS011;8368;48.772;8.754;2023-07-22T01:59:24;1.20;;;1.20;;
16510;SDS011;8368;48.772;8.754;2023-07-22T02:01:50;1.40;;;1.38;;
16510;SDS011;8368;48.772;8.754;2023-07-22T02:04:16;1.23;;;1.17;;
16510;SDS011;8368;48.772;8.754;2023-07-22T02:06:42;1.60;;;1.50;;
16510;SDS011;8368;48.772;8.754;2023-07-22T02:09:07;1.60;;;1.50;;
16510;SDS011;8368;48.772;8.754;2023-07-22T02:11:34;1.30;;;1.30;;
16510;SDS011;8368;48.772;8.754;2023-07-22T02:14:00;1.20;;;1.10;;
16510;SDS011;8368;48.772;8.754;2023-07-22T02:16:26;1.40;;;1.40;;
16510;SDS011;8368;48.772;8.754;2023-07-22T02:18:51;1.52;;;1.50;;
16510;SDS011;8368;48.772;8.754;2023-07-22T02:21:17;1.63;;;1.53;;
16510;SDS011;8368;48.772;8.754;2023-07-22T02:23:42;1.53;;;1.43;;
16510;SDS011;8368;48.772;8.754;2023-07-22T02:26:08;1.33;;;1.30;;
16510;SDS011;8368;48.772;8.754;2023-07-22T02:28:34;1.80;;;1.70;;
16510;SDS011;8368;48.772;8.754;2023-07-22T02:31:00;1.55;;;1.45;;
16510;SDS011;8368;48.772;8.754;2023-07-22T02:33:30;1.25;;;1.17;;
16510;SDS011;8368;48.772;8.754;2023-07-22T02:35:56;1.67;;;1.60;;
16510;SDS011;8368;48.772;8.754;2023-07-22T02:38:21;1.48;;;1.40;;
16510;SDS011;8368;48.772;8.754;2023-07-22T02:40:47;1.27;;;1.25;;
16510;SDS011;8368;48.772;8.754;2023-07-22T02:43:12;1.23;;;1.23;;
16510;SDS011;8368;48.772;8.754;2023-07-22T02:45:38;1.33;;;1.27;;
16510;SDS011;8368;48.772;8.754;2023-07-22T02:48:03;1.37;;;1.27;;
16510;SDS011;8368;48.772;8.754;2023-07-22T02:50:29;1.92;;;1.40;;
16510;SDS011;8368;48.772;8.754;2023-07-22T02:52:55;1.70;;;1.60;;
16510;SDS011;8368;48.772;8.754;2023-07-22T02:55:21;1.70;;;1.60;;
16510;SDS011;8368;48.772;8.754;2023-07-22T02:57:47;1.40;;;1.30;;
16510;SDS011;8368;48.772;8.754;2023-07-22T03:00:14;1.50;;;1.40;;
16510;SDS011;8368;48.772;8.754;2023-07-22T03:02:54;2.13;;;1.73;;
16510;SDS011;8368;48.772;8.754;2023-07-22T03:05:26;1.57;;;1.47;;
16510;SDS011;8368;48.772;8.754;2023-07-22T03:07:55;1.63;;;1.37;;
16510;SDS011;8368;48.772;8.754;2023-07-22T03:10:21;1.40;;;1.40;;
16510;SDS011;8368;48.772;8.754;2023-07-22T03:12:47;1.40;;;1.40;;
16510;SDS011;8368;48.772;8.754;2023-07-22T03:15:13;1.80;;;1.70;;
16510;SDS011;8368;48.772;8.754;2023-07-22T03:17:39;1.60;;;1.50;;
16510;SDS011;8368;48.772;8.754;2023-07-22T03:20:07;1.60;;;1.50;;
16510;SDS011;8368;48.772;8.754;2023-07-22T03:22:39;1.50;;;1.40;;
16510;SDS011;8368;48.772;8.754;2023-07-22T03:25:08;1.40;;;1.40;;
16510;SDS011;8368;48.772;8.754;2023-07-22T03:27:35;1.97;;;1.80;;
16510;SDS011;8368;48.772;8.754;2023-07-22T03:30:05;1.47;;;1.37;;
16510;SDS011;8368;48.772;8.754;2023-07-22T03:32:35;1.67;;;1.57;;
16510;SDS011;8368;48.772;8.754;2023-07-22T03:35:01;1.10;;;1.10;;
16510;SDS011;8368;48.772;8.754;2023-07-22T03:37:27;1.30;;;1.30;;
16510;SDS011;8368;48.772;8.754;2023-07-22T03:39:53;1.03;;;1.03;;
16510;SDS011;8368;48.772;8.754;2023-07-22T03:42:19;1.80;;;1.70;;
16510;SDS011;8368;48.772;8.754;2023-07-22T03:44:44;1.47;;;1.47;;
16510;SDS011;8368;48.772;8.754;2023-07-22T03:47:10;1.33;;;1.33;;
16510;SDS011;8368;48.772;8.754;2023-07-22T03:49:35;1.70;;;1.60;;
16510;SDS011;8368;48.772;8.754;2023-07-22T03:52:01;1.60;;;1.50;;
16510;SDS011;8368;48.772;8.754;2023-07-22T03:54:26;1.73;;;1.70;;
16510;SDS011;8368;48.772;8.754;2023-07-22T03:56:52;1.50;;;1.40;;
16510;SDS011;8368;48.772;8.754;2023-07-22T03:59:17;1.67;;;1.58;;
16510;SDS011;8368;48.772;8.754;2023-07-22T04:01:43;1.50;;;1.50;;
16510;SDS011;8368;48.772;8.754;2023-07-22T04:04:09;1.50;;;1.50;;
16510;SDS011;8368;48.772;8.754;2023-07-22T04:06:34;1.37;;;1.27;;
16510;SDS011;8368;48.772;8.754;2023-07-22T04:09:00;1.40;;;1.40;;
16510;SDS011;8368;48.772;8.754;2023-07-22T04:11:26;2.30;;;1.37;;
16510;SDS011;8368;48.772;8.754;2023-07-22T04:13:52;1.27;;;1.27;;
16510;SDS011;8368;48.772;8.754;2023-07-22T04:16:18;1.77;;;1.67;;
16510;SDS011;8368;48.772;8.754;2023-07-22T04:18:43;1.57;;;1.47;;
16510;SDS011;8368;48.772;8.754;2023-07-22T04:21:09;1.77;;;1.67;;
16510;SDS011;8368;48.772;8.754;2023-07-22T04:23:34;1.23;;;1.23;;
16510;SDS011;8368;48.772;8.754;2023-07-22T04:26:01;1.40;;;1.40;;
16510;SDS011;8368;48.772;8.754;2023-07-22T04:28:30;1.20;;;1.20;;
16510;SDS011;8368;48.772;8.754;2023-07-22T04:30:56;1.83;;;1.70;;
16510;SDS011;8368;48.772;8.754;2023-07-22T04:33:23;2.73;;;1.57;;
16510;SDS011;8368;48.772;8.754;2023-07-22T04:35:49;1.90;;;1.80;;
16510;SDS011;8368;48.772;8.754;2023-07-22T04:38:16;1.27;;;1.27;;
16510;SDS011;8368;48.772;8.754;2023-07-22T04:40:44;1.50;;;1.40;;
16510;SDS011;8368;48.772;8.754;2023-07-22T04:43:09;1.30;;;1.30;;
16510;SDS011;8368;48.772;8.754;2023-07-22T04:45:35;1.13;;;1.13;;
16510;SDS011;8368;48.772;8.754;2023-07-22T04:48:01;1.40;;;1.30;;
16510;SDS011;8368;48.772;8.754;2023-07-22T04:50:27;1.30;;;1.30;;
16510;SDS011;8368;48.772;8.754;2023-07-22T04:52:53;1.47;;;1.37;;
16510;SDS011;8368;48.772;8.754;2023-07-22T04:55:20;1.30;;;1.30;;
16510;SDS011;8368;48.772;8.754;2023-07-22T04:57:45;1.50;;;1.50;;
16510;SDS011;8368;48.772;8.754;2023-07-22T05:00:11;1.70;;;1.60;;
16510;SDS011;8368;48.772;8.754;2023-07-22T05:02:47;1.47;;;1.40;;
16510;SDS011;8368;48.772;8.754;2023-07-22T05:05:13;1.20;;;1.20;;
16510;SDS011;8368;48.772;8.754;2023-07-22T05:07:39;1.67;;;1.67;;
16510;SDS011;8368;48.772;8.754;2023-07-22T05:10:05;1.63;;;1.53;;
16510;SDS011;8368;48.772;8.754;2023-07-22T05:12:32;1.27;;;1.27;;
16510;SDS011;8368;48.772;8.754;2023-07-22T05:14:57;1.00;;;1.00;;
16510;SDS011;8368;48.772;8.754;2023-07-22T05:17:23;1.40;;;1.40;;
16510;SDS011;8368;48.772;8.754;2023-07-22T05:19:50;1.35;;;1.35;;
16510;SDS011;8368;48.772;8.754;2023-07-22T05:22:16;1.17;;;1.13;;
16510;SDS011;8368;48.772;8.754;2023-07-22T05:24:41;1.50;;;1.42;;
16510;SDS011;8368;48.772;8.754;2023-07-22T05:27:07;1.30;;;1.30;;
16510;SDS011;8368;48.772;8.754;2023-07-22T05:29:33;2.63;;;1.75;;
16510;SDS011;8368;48.772;8.754;2023-07-22T05:31:58;1.40;;;1.30;;
16510;SDS011;8368;48.772;8.754;2023-07-22T05:34:24;1.70;;;1.60;;
16510;SDS011;8368;48.772;8.754;2023-07-22T05:36:49;1.20;;;1.20;;
16510;SDS011;8368;48.772;8.754;2023-07-22T05:39:15;1.42;;;1.35;;
16510;SDS011;8368;48.772;8.754;2023-07-22T05:41:42;1.20;;;1.20;;
16510;SDS011;8368;48.772;8.754;2023-07-22T05:44:08;1.17;;;1.15;;
16510;SDS011;8368;48.772;8.754;2023-07-22T05:46:33;1.00;;;1.00;;
16510;SDS011;8368;48.772;8.754;2023-07-22T05:48:59;1.58;;;1.40;;
16510;SDS011;8368;48.772;8.754;2023-07-22T05:51:24;1.50;;;1.50;;
16510;SDS011;8368;48.772;8.754;2023-07-22T05:53:50;1.65;;;1.55;;
16510;SDS011;8368;48.772;8.754;2023-07-22T05:56:16;1.30;;;1.30;;
16510;SDS011;8368;48.772;8.754;2023-07-22T05:58:41;1.70;;;1.60;;
16510;SDS011;8368;48.772;8.754;2023-07-22T06:01:07;1.50;;;1.40;;
16510;SDS011;8368;48.772;8.754;2023-07-22T06:03:33;1.38;;;1.30;;
16510;SDS011;8368;48.772;8.754;2023-07-22T06:05:58;1.23;;;1.13;;
16510;SDS011;8368;48.772;8.754;2023-07-22T06:08:24;1.55;;;1.20;;
16510;SDS011;8368;48.772;8.754;2023-07-22T06:10:50;1.38;;;1.27;;
16510;SDS011;8368;48.772;8.754;2023-07-22T06:13:16;1.42;;;1.33;;
16510;SDS011;8368;48.772;8.754;2023-07-22T06:15:42;1.65;;;1.40;;
16510;SDS011;8368;48.772;8.754;2023-07-22T06:18:07;1.17;;;1.17;;
16510;SDS011;8368;48.772;8.754;2023-07-22T06:20:34;1.30;;;1.30;;
16510;SDS011;8368;48.772;8.754;2023-07-22T06:23:01;1.20;;;1.20;;
16510;SDS011;8368;48.772;8.754;2023-07-22T06:25:27;0.98;;;0.98;;
16510;SDS011;8368;48.772;8.754;2023-07-22T06:27:52;1.23;;;1.20;;
16510;SDS011;8368;48.772;8.754;2023-07-22T06:30:19;1.20;;;1.20;;
16510;SDS011;8368;48.772;8.754;2023-07-22T06:32:44;1.00;;;1.00;;
16510;SDS011;8368;48.772;8.754;2023-07-22T06:35:10;0.90;;;0.90;;
16510;SDS011;8368;48.772;8.754;2023-07-22T06:37:35;2.13;;;1.08;;
16510;SDS011;8368;48.772;8.754;2023-07-22T06:40:01;1.15;;;1.15;;
16510;SDS011;8368;48.772;8.754;2023-07-22T06:42:28;0.90;;;0.90;;
16510;SDS011;8368;48.772;8.754;2023-07-22T06:44:54;1.05;;;1.05;;
16510;SDS011;8368;48.772;8.754;2023-07-22T06:47:20;1.25;;;1.20;;
16510;SDS011;8368;48.772;8.754;2023-07-22T06:49:45;0.95;;;0.95;;
16510;SDS011;8368;48.772;8.754;2023-07-22T06:52:11;0.70;;;0.70;;
16510;SDS011;8368;48.772;8.754;2023-07-22T06:54:36;0.73;;;0.73;;
16510;SDS011;8368;48.772;8.754;2023-07-22T06:57:02;0.85;;;0.85;;
16510;SDS011;8368;48.772;8.754;2023-07-22T06:59:28;1.20;;;1.20;;
16510;SDS011;8368;48.772;8.754;2023-07-22T07:01:54;0.68;;;0.68;;
16510;SDS011;8368;48.772;8.754;2023-07-22T07:04:19;3.47;;;1.20;;
16510;SDS011;8368;48.772;8.754;2023-07-22T07:06:45;1.02;;;1.02;;
16510;SDS011;8368;48.772;8.754;2023-07-22T07:09:11;0.80;;;0.80;;
16510;SDS011;8368;48.772;8.754;2023-07-22T07:11:37;0.80;;;0.80;;
16510;SDS011;8368;48.772;8.754;2023-07-22T07:14:03;0.95;;;0.95;;
16510;SDS011;8368;48.772;8.754;2023-07-22T07:16:29;0.82;;;0.82;;
16510;SDS011;8368;48.772;8.754;2023-07-22T07:18:56;0.80;;;0.80;;
16510;SDS011;8368;48.772;8.754;2023-07-22T07:21:23;0.75;;;0.75;;
16510;SDS011;8368;48.772;8.754;2023-07-22T07:23:49;1.42;;;0.93;;
16510;SDS011;8368;48.772;8.754;2023-07-22T07:26:16;1.13;;;1.13;;
16510;SDS011;8368;48.772;8.754;2023-07-22T07:28:42;0.88;;;0.88;;
16510;SDS011;8368;48.772;8.754;2023-07-22T07:31:07;0.90;;;0.90;;
16510;SDS011;8368;48.772;8.754;2023-07-22T07:33:33;1.10;;;1.10;;
16510;SDS011;8368;48.772;8.754;2023-07-22T07:35:59;0.80;;;0.80;;
16510;SDS011;8368;48.772;8.754;2023-07-22T07:38:25;1.00;;;1.00;;
16510;SDS011;8368;48.772;8.754;2023-07-22T07:41:02;0.70;;;0.70;;
16510;SDS011;8368;48.772;8.754;2023-07-22T07:43:29;0.80;;;0.80;;
16510;SDS011;8368;48.772;8.754;2023-07-22T07:48:47;0.88;;;0.88;;
16510;SDS011;8368;48.772;8.754;2023-07-22T07:51:13;0.98;;;0.98;;
16510;SDS011;8368;48.772;8.754;2023-07-22T07:53:40;0.60;;;0.60;;
16510;SDS011;8368;48.772;8.754;2023-07-22T07:56:09;0.90;;;0.90;;
16510;SDS011;8368;48.772;8.754;2023-07-22T07:58:35;0.75;;;0.75;;
16510;SDS011;8368;48.772;8.754;2023-07-22T08:01:02;0.70;;;0.70;;
16510;SDS011;8368;48.772;8.754;2023-07-22T08:03:27;0.80;;;0.80;;
16510;SDS011;8368;48.772;8.754;2023-07-22T08:05:53;0.85;;;0.85;;
16510;SDS011;8368;48.772;8.754;2023-07-22T08:08:19;0.70;;;0.70;;
16510;SDS011;8368;48.772;8.754;2023-07-22T08:10:46;0.77;;;0.77;;
16510;SDS011;8368;48.772;8.754;2023-07-22T08:13:11;0.70;;;0.70;;
16510;SDS011;8368;48.772;8.754;2023-07-22T08:15:37;0.70;;;0.70;;
16510;SDS011;8368;48.772;8.754;2023-07-22T08:18:02;0.80;;;0.80;;
16510;SDS011;8368;48.772;8.754;2023-07-22T08:20:29;0.70;;;0.70;;
16510;SDS011;8368;48.772;8.754;2023-07-22T08:22:55;0.73;;;0.73;;
16510;SDS011;8368;48.772;8.754;2023-07-22T08:25:21;0.82;;;0.82;;
16510;SDS011;8368;48.772;8.754;2023-07-22T08:27:46;0.73;;;0.73;;
16510;SDS011;8368;48.772;8.754;2023-07-22T08:30:12;0.75;;;0.75;;
16510;SDS011;8368;48.772;8.754;2023-07-22T08:32:37;0.75;;;0.75;;
16510;SDS011;8368;48.772;8.754;2023-07-22T08:35:03;0.80;;;0.80;;
16510;SDS011;8368;48.772;8.754;2023-07-22T08:37:30;1.05;;;1.00;;
16510;SDS011;8368;48.772;8.754;2023-07-22T08:39:56;0.70;;;0.70;;
16510;SDS011;8368;48.772;8.754;2023-07-22T08:42:21;0.80;;;0.80;;
16510;SDS011;8368;48.772;8.754;2023-07-22T08:44:48;0.80;;;0.80;;
16510;SDS011;8368;48.772;8.754;2023-07-22T08:47:17;1.08;;;1.08;;
16510;SDS011;8368;48.772;8.754;2023-07-22T08:49:46;1.00;;;0.90;;
16510;SDS011;8368;48.772;8.754;2023-07-22T08:52:16;0.75;;;0.70;;
16510;SDS011;8368;48.772;8.754;2023-07-22T08:54:43;0.80;;;0.80;;
16510;SDS011;8368;48.772;8.754;2023-07-22T08:57:10;0.80;;;0.80;;
16510;SDS011;8368;48.772;8.754;2023-07-22T08:59:36;0.90;;;0.90;;
16510;SDS011;8368;48.772;8.754;2023-07-22T09:02:03;1.00;;;1.00;;
16510;SDS011;8368;48.772;8.754;2023-07-22T09:04:30;0.90;;;0.90;;
16510;SDS011;8368;48.772;8.754;2023-07-22T09:06:55;0.73;;;0.73;;
16510;SDS011;8368;48.772;8.754;2023-07-22T09:09:21;0.90;;;0.90;;
16510;SDS011;8368;48.772;8.754;2023-07-22T09:11:49;0.95;;;0.95;;
16510;SDS011;8368;48.772;8.754;2023-07-22T09:14:15;1.00;;;1.00;;
16510;SDS011;8368;48.772;8.754;2023-07-22T09:16:44;0.80;;;0.80;;
16510;SDS011;8368;48.772;8.754;2023-07-22T09:19:09;0.80;;;0.80;;
16510;SDS011;8368;48.772;8.754;2023-07-22T09:21:35;0.70;;;0.70;;
16510;SDS011;8368;48.772;8.754;2023-07-22T09:24:01;0.90;;;0.90;;
16510;SDS011;8368;48.772;8.754;2023-07-22T09:26:27;0.60;;;0.60;;
16510;SDS011;8368;48.772;8.754;2023-07-22T09:28:57;0.80;;;0.80;;
16510;SDS011;8368;48.772;8.754;2023-07-22T09:31:24;0.90;;;0.90;;
16510;SDS011;8368;48.772;8.754;2023-07-22T09:33:50;1.02;;;1.02;;
16510;SDS011;8368;48.772;8.754;2023-07-22T09:36:16;0.85;;;0.85;;
16510;SDS011;8368;48.772;8.754;2023-07-22T09:38:42;0.95;;;0.95;;
16510;SDS011;8368;48.772;8.754;2023-07-22T09:41:07;0.80;;;0.80;;
16510;SDS011;8368;48.772;8.754;2023-07-22T09:43:37;0.80;;;0.80;;
16510;SDS011;8368;48.772;8.754;2023-07-22T09:46:10;0.90;;;0.90;;
16510;SDS011;8368;48.772;8.754;2023-07-22T09:48:39;0.85;;;0.85;;
16510;SDS011;8368;48.772;8.754;2023-07-22T09:51:06;0.80;;;0.80;;
16510;SDS011;8368;48.772;8.754;2023-07-22T09:53:37;0.70;;;0.70;;
16510;SDS011;8368;48.772;8.754;2023-07-22T09:56:05;0.70;;;0.70;;
16510;SDS011;8368;48.772;8.754;2023-07-22T09:58:31;0.95;;;0.95;;
16510;SDS011;8368;48.772;8.754;2023-07-22T10:00:58;0.80;;;0.80;;
16510;SDS011;8368;48.772;8.754;2023-07-22T10:03:26;0.90;;;0.90;;
16510;SDS011;8368;48.772;8.754;2023-07-22T10:05:55;0.88;;;0.88;;
16510;SDS011;8368;48.772;8.754;2023-07-22T10:08:23;0.80;;;0.80;;
16510;SDS011;8368;48.772;8.754;2023-07-22T10:10:50;2.03;;;0.90;;
16510;SDS011;8368;48.772;8.754;2023-07-22T10:13:18;0.90;;;0.90;;
16510;SDS011;8368;48.772;8.754;2023-07-22T10:15:44;1.15;;;1.10;;
16510;SDS011;8368;48.772;8.754;2023-07-22T10:18:10;1.00;;;1.00;;
16510;SDS011;8368;48.772;8.754;2023-07-22T10:20:36;1.00;;;1.00;;
16510;SDS011;8368;48.772;8.754;2023-07-22T10:23:03;0.90;;;0.90;;
16510;SDS011;8368;48.772;8.754;2023-07-22T10:25:29;1.08;;;1.08;;
16510;SDS011;8368;48.772;8.754;2023-07-22T10:27:55;0.95;;;0.95;;
16510;SDS011;8368;48.772;8.754;2023-07-22T10:30:20;0.88;;;0.88;;
16510;SDS011;8368;48.772;8.754;2023-07-22T10:32:49;1.05;;;1.05;;
16510;SDS011;8368;48.772;8.754;2023-07-22T10:35:21;1.00;;;1.00;;
16510;SDS011;8368;48.772;8.754;2023-07-22T10:38:11;0.80;;;0.80;;
16510;SDS011;8368;48.772;8.754;2023-07-22T10:43:15;0.70;;;0.70;;
16510;SDS011;8368;48.772;8.754;2023-07-22T10:45:51;1.02;;;1.02;;
16510;SDS011;8368;48.772;8.754;2023-07-22T10:48:18;1.00;;;1.00;;
16510;SDS011;8368;48.772;8.754;2023-07-22T10:53:27;0.90;;;0.90;;
16510;SDS011;8368;48.772;8.754;2023-07-22T11:11:56;1.05;;;1.05;;
16510;SDS011;8368;48.772;8.754;2023-07-22T11:14:25;0.70;;;0.70;;
16510;SDS011;8368;48.772;8.754;2023-07-22T11:16:51;0.88;;;0.88;;
16510;SDS011;8368;48.772;8.754;2023-07-22T11:19:19;1.33;;;1.23;;
16510;SDS011;8368;48.772;8.754;2023-07-22T11:21:46;0.93;;;0.93;;
16510;SDS011;8368;48.772;8.754;2023-07-22T11:24:12;2.10;;;1.02;;
16510;SDS011;8368;48.772;8.754;2023-07-22T11:26:39;1.15;;;1.10;;
16510;SDS011;8368;48.772;8.754;2023-07-22T11:29:06;1.52;;;1.20;;
16510;SDS011;8368;48.772;8.754;2023-07-22T11:31:36;1.30;;;1.20;;
16510;SDS011;8368;48.772;8.754;2023-07-22T11:34:03;1.25;;;1.25;;
16510;SDS011;8368;48.772;8.754;2023-07-22T11:36:29;1.02;;;1.02;;
16510;SDS011;8368;48.772;8.754;2023-07-22T11:39:03;0.95;;;0.95;;
16510;SDS011;8368;48.772;8.754;2023-07-22T11:41:33;1.00;;;1.00;;
16510;SDS011;8368;48.772;8.754;2023-07-22T11:44:00;1.10;;;1.10;;
16510;SDS011;8368;48.772;8.754;2023-07-22T11:46:27;1.05;;;1.05;;
16510;SDS011;8368;48.772;8.754;2023-07-22T11:48:54;1.08;;;1.08;;
16510;SDS011;8368;48.772;8.754;2023-07-22T11:51:21;1.40;;;1.38;;
16510;SDS011;8368;48.772;8.754;2023-07-22T11:53:52;1.05;;;1.00;;
16510;SDS011;8368;48.772;8.754;2023-07-22T11:56:19;1.40;;;1.30;;
16510;SDS011;8368;48.772;8.754;2023-07-22T11:58:53;1.30;;;1.20;;
16510;SDS011;8368;48.772;8.754;2023-07-22T12:01:19;1.13;;;1.13;;
16510;SDS011;8368;48.772;8.754;2023-07-22T12:03:46;1.00;;;1.00;;
16510;SDS011;8368;48.772;8.754;2023-07-22T12:06:12;1.10;;;1.10;;
16510;SDS011;8368;48.772;8.754;2023-07-22T12:08:45;1.08;;;1.08;;
16510;SDS011;8368;48.772;8.754;2023-07-22T12:11:15;1.30;;;1.20;;
16510;SDS011;8368;48.772;8.754;2023-07-22T12:13:42;1.17;;;1.17;;
16510;SDS011;8368;48.772;8.754;2023-07-22T12:16:11;0.98;;;0.98;;
16510;SDS011;8368;48.772;8.754;2023-07-22T12:18:46;1.15;;;1.10;;
16510;SDS011;8368;48.772;8.754;2023-07-22T12:21:12;1.20;;;1.20;;
16510;SDS011;8368;48.772;8.754;2023-07-22T12:23:38;1.25;;;1.10;;
16510;SDS011;8368;48.772;8.754;2023-07-22T12:26:04;1.02;;;1.02;;
16510;SDS011;8368;48.772;8.754;2023-07-22T12:28:30;1.08;;;1.08;;
16510;SDS011;8368;48.772;8.754;2023-07-22T12:30:56;0.90;;;0.90;;
16510;SDS011;8368;48.772;8.754;2023-07-22T12:33:22;1.25;;;1.20;;
16510;SDS011;8368;48.772;8.754;2023-07-22T12:35:55;1.00;;;1.00;;
16510;SDS011;8368;48.772;8.754;2023-07-22T12:38:21;1.40;;;1.30;;
16510;SDS011;8368;48.772;8.754;2023-07-22T12:40:47;0.73;;;0.73;;
16510;SDS011;8368;48.772;8.754;2023-07-22T12:43:12;1.20;;;1.20;;
16510;SDS011;8368;48.772;8.754;2023-07-22T12:45:38;1.10;;;1.10;;
16510;SDS011;8368;48.772;8.754;2023-07-22T12:48:03;1.30;;;1.20;;
16510;SDS011;8368;48.772;8.754;2023-07-22T12:50:30;1.02;;;1.02;;
16510;SDS011;8368;48.772;8.754;2023-07-22T12:52:57;1.05;;;1.05;;
16510;SDS011;8368;48.772;8.754;2023-07-22T12:55:23;1.20;;;1.20;;
16510;SDS011;8368;48.772;8.754;2023-07-22T12:57:48;1.13;;;1.13;;
16510;SDS011;8368;48.772;8.754;2023-07-22T13:00:14;1.48;;;1.40;;
16510;SDS011;8368;48.772;8.754;2023-07-22T13:02:40;0.85;;;0.85;;
16510;SDS011;8368;48.772;8.754;2023-07-22T13:05:05;1.20;;;1.20;;
16510;SDS011;8368;48.772;8.754;2023-07-22T13:07:31;1.42;;;1.33;;
16510;SDS011;8368;48.772;8.754;2023-07-22T13:09:57;1.10;;;1.10;;
16510;SDS011;8368;48.772;8.754;2023-07-22T13:12:25;1.10;;;1.10;;
16510;SDS011;8368;48.772;8.754;2023-07-22T13:14:51;1.33;;;1.33;;
16510;SDS011;8368;48.772;8.754;2023-07-22T13:17:16;1.13;;;1.13;;
16510;SDS011;8368;48.772;8.754;2023-07-22T13:19:42;1.30;;;1.30;;
16510;SDS011;8368;48.772;8.754;2023-07-22T13:22:08;1.15;;;1.15;;
16510;SDS011;8368;48.772;8.754;2023-07-22T13:24:33;1.20;;;1.20;;
16510;SDS011;8368;48.772;8.754;2023-07-22T13:26:59;1.23;;;1.23;;
16510;SDS011;8368;48.772;8.754;2023-07-22T13:29:24;1.15;;;1.15;;
16510;SDS011;8368;48.772;8.754;2023-07-22T13:31:49;1.23;;;1.23;;
16510;SDS011;8368;48.772;8.754;2023-07-22T13:34:15;1.20;;;1.20;;
16510;SDS011;8368;48.772;8.754;2023-07-22T13:36:40;0.85;;;0.85;;
16510;SDS011;8368;48.772;8.754;2023-07-22T13:39:06;1.38;;;1.38;;
16510;SDS011;8368;48.772;8.754;2023-07-22T13:41:32;1.30;;;1.30;;
16510;SDS011;8368;48.772;8.754;2023-07-22T13:43:57;1.33;;;1.33;;
16510;SDS011;8368;48.772;8.754;2023-07-22T13:46:23;1.10;;;1.10;;
16510;SDS011;8368;48.772;8.754;2023-07-22T13:48:48;0.98;;;0.98;;
16510;SDS011;8368;48.772;8.754;2023-07-22T13:51:14;1.35;;;1.35;;
16510;SDS011;8368;48.772;8.754;2023-07-22T13:53:39;1.10;;;1.10;;
16510;SDS011;8368;48.772;8.754;2023-07-22T13:56:05;1.17;;;1.17;;
16510;SDS011;8368;48.772;8.754;2023-07-22T13:58:30;1.20;;;1.20;;
16510;SDS011;8368;48.772;8.754;2023-07-22T14:00:56;1.23;;;1.20;;
16510;SDS011;8368;48.772;8.754;2023-07-22T14:03:21;1.00;;;1.00;;
16510;SDS011;8368;48.772;8.754;2023-07-22T14:05:47;1.20;;;1.20;;
16510;SDS011;8368;48.772;8.754;2023-07-22T14:08:12;1.40;;;1.40;;
16510;SDS011;8368;48.772;8.754;2023-07-22T14:10:38;1.20;;;1.20;;
16510;SDS011;8368;48.772;8.754;2023-07-22T14:13:03;1.20;;;1.20;;
16510;SDS011;8368;48.772;8.754;2023-07-22T14:15:29;1.38;;;1.30;;
16510;SDS011;8368;48.772;8.754;2023-07-22T14:17:54;1.30;;;1.15;;
16510;SDS011;8368;48.772;8.754;2023-07-22T14:20:20;1.38;;;1.38;;
16510;SDS011;8368;48.772;8.754;2023-07-22T14:22:45;2.33;;;1.50;;
16510;SDS011;8368;48.772;8.754;2023-07-22T14:25:11;1.10;;;1.10;;
16510;SDS011;8368;48.772;8.754;2023-07-22T14:27:38;1.05;;;1.05;;
16510;SDS011;8368;48.772;8.754;2023-07-22T14:30:04;2.35;;;1.95;;
16510;SDS011;8368;48.772;8.754;2023-07-22T14:32:30;1.58;;;1.50;;
16510;SDS011;8368;48.772;8.754;2023-07-22T14:34:56;1.45;;;1.40;;
16510;SDS011;8368;48.772;8.754;2023-07-22T14:37:22;1.63;;;1.52;;
16510;SDS011;8368;48.772;8.754;2023-07-22T14:39:48;1.13;;;1.13;;
16510;SDS011;8368;48.772;8.754;2023-07-22T14:42:13;1.58;;;1.48;;
16510;SDS011;8368;48.772;8.754;2023-07-22T14:44:39;1.30;;;1.30;;
16510;SDS011;8368;48.772;8.754;2023-07-22T14:47:04;1.52;;;1.45;;
16510;SDS011;8368;48.772;8.754;2023-07-22T14:49:30;1.48;;;1.48;;
16510;SDS011;8368;48.772;8.754;2023-07-22T14:51:56;1.38;;;1.35;;
16510;SDS011;8368;48.772;8.754;2023-07-22T14:54:21;1.38;;;1.35;;
16510;SDS011;8368;48.772;8.754;2023-07-22T14:56:47;1.38;;;1.38;;
16510;SDS011;8368;48.772;8.754;2023-07-22T14:59:14;1.38;;;1.38;;
16510;SDS011;8368;48.772;8.754;2023-07-22T15:01:40;1.65;;;1.55;;
16510;SDS011;8368;48.772;8.754;2023-07-22T15:04:07;1.58;;;1.48;;
16510;SDS011;8368;48.772;8.754;2023-07-22T15:06:33;1.30;;;1.30;;
16510;SDS011;8368;48.772;8.754;2023-07-22T15:09:00;1.25;;;1.25;;
16510;SDS011;8368;48.772;8.754;2023-07-22T15:11:27;1.33;;;1.33;;
16510;SDS011;8368;48.772;8.754;2023-07-22T15:13:52;1.55;;;1.48;;
16510;SDS011;8368;48.772;8.754;2023-07-22T15:16:18;1.23;;;1.23;;
16510;SDS011;8368;48.772;8.754;2023-07-22T15:18:43;1.35;;;1.35;;